Terminal Aerodrome Forecast
Issued by NWS

Home | Current Version | Previous Version | Text Only | Print | Product List | Glossary On
Versions: 1 2 3 4 5 6 7 8 9 10 11 12
000
FTUS45 KRIW 052300
TAFJAC
TAF
KJAC 052338Z 0600/0624 VRB05G15KT P6SM VCTS SCT050CB BKN070
     FM060200 VRB06KT P6SM VCSH BKN050
     FM060600 36007KT P6SM BKN080
     FM061300 36008KT P6SM SCT050 BKN080
     FM062300 36008KT P6SM VCSH BKN060
      AMD LTD TO CLD VIS AND WIND=

USA.gov is the U.S. government's official web portal to all federal, state and local government web resources and services.